sensor_id;sensor_type;location;lat;lon;timestamp;P1;durP1;ratioP1;P2;durP2;ratioP2
39740;SDS011;25426;53.478;10.190;2024-01-30T09:21:57;20.60;;;16.08;;
39740;SDS011;25426;53.478;10.190;2024-01-30T09:24:28;18.23;;;15.57;;
39740;SDS011;25426;53.478;10.190;2024-01-30T09:26:59;21.67;;;16.38;;
39740;SDS011;25426;53.478;10.190;2024-01-30T09:29:30;18.45;;;15.35;;
39740;SDS011;25426;53.478;10.190;2024-01-30T09:32:01;16.23;;;14.50;;
39740;SDS011;25426;53.478;10.190;2024-01-30T09:34:32;17.05;;;15.05;;
39740;SDS011;25426;53.478;10.190;2024-01-30T09:37:03;17.20;;;14.55;;
39740;SDS011;25426;53.478;10.190;2024-01-30T09:39:34;19.60;;;15.43;;
39740;SDS011;25426;53.478;10.190;2024-01-30T09:42:05;20.63;;;15.05;;
39740;SDS011;25426;53.478;10.190;2024-01-30T09:44:51;16.70;;;14.98;;
39740;SDS011;25426;53.478;10.190;2024-01-30T09:47:22;20.75;;;15.18;;
39740;SDS011;25426;53.478;10.190;2024-01-30T09:49:53;15.65;;;14.05;;
39740;SDS011;25426;53.478;10.190;2024-01-30T09:52:26;18.98;;;14.45;;
39740;SDS011;25426;53.478;10.190;2024-01-30T09:54:57;16.48;;;14.07;;
39740;SDS011;25426;53.478;10.190;2024-01-30T09:57:31;20.42;;;14.00;;
39740;SDS011;25426;53.478;10.190;2024-01-30T10:00:03;17.95;;;14.07;;
39740;SDS011;25426;53.478;10.190;2024-01-30T10:02:42;17.35;;;14.35;;
39740;SDS011;25426;53.478;10.190;2024-01-30T10:05:14;19.63;;;15.15;;
39740;SDS011;25426;53.478;10.190;2024-01-30T10:07:50;18.13;;;14.52;;
39740;SDS011;25426;53.478;10.190;2024-01-30T10:10:24;20.17;;;15.40;;
39740;SDS011;25426;53.478;10.190;2024-01-30T10:12:56;17.50;;;14.45;;
39740;SDS011;25426;53.478;10.190;2024-01-30T10:15:27;19.77;;;13.65;;
39740;SDS011;25426;53.478;10.190;2024-01-30T10:17:59;16.48;;;13.82;;
39740;SDS011;25426;53.478;10.190;2024-01-30T10:20:30;15.20;;;13.70;;
39740;SDS011;25426;53.478;10.190;2024-01-30T10:23:01;14.82;;;13.40;;
39740;SDS011;25426;53.478;10.190;2024-01-30T10:25:33;18.05;;;13.40;;
39740;SDS011;25426;53.478;10.190;2024-01-30T10:28:04;16.35;;;14.63;;
39740;SDS011;25426;53.478;10.190;2024-01-30T10:30:35;15.75;;;13.55;;
39740;SDS011;25426;53.478;10.190;2024-01-30T10:33:06;19.52;;;14.40;;
39740;SDS011;25426;53.478;10.190;2024-01-30T10:35:37;17.30;;;13.27;;
39740;SDS011;25426;53.478;10.190;2024-01-30T10:40:39;18.92;;;17.00;;
39740;SDS011;25426;53.478;10.190;2024-01-30T10:43:10;16.08;;;14.55;;
39740;SDS011;25426;53.478;10.190;2024-01-30T10:45:41;15.05;;;13.55;;
39740;SDS011;25426;53.478;10.190;2024-01-30T10:48:14;15.73;;;14.00;;
39740;SDS011;25426;53.478;10.190;2024-01-30T10:50:47;15.32;;;13.73;;
39740;SDS011;25426;53.478;10.190;2024-01-30T10:53:18;14.98;;;13.18;;
39740;SDS011;25426;53.478;10.190;2024-01-30T10:55:51;18.23;;;13.48;;
39740;SDS011;25426;53.478;10.190;2024-01-30T10:58:22;15.57;;;13.98;;
39740;SDS011;25426;53.478;10.190;2024-01-30T11:00:53;14.15;;;12.63;;
39740;SDS011;25426;53.478;10.190;2024-01-30T11:03:25;17.08;;;13.95;;
39740;SDS011;25426;53.478;10.190;2024-01-30T11:05:58;15.25;;;12.82;;
39740;SDS011;25426;53.478;10.190;2024-01-30T11:08:31;14.55;;;13.02;;
39740;SDS011;25426;53.478;10.190;2024-01-30T11:11:03;17.40;;;12.68;;
39740;SDS011;25426;53.478;10.190;2024-01-30T11:13:40;14.02;;;12.23;;
39740;SDS011;25426;53.478;10.190;2024-01-30T11:16:12;19.02;;;14.18;;
39740;SDS011;25426;53.478;10.190;2024-01-30T11:18:43;16.65;;;13.38;;
39740;SDS011;25426;53.478;10.190;2024-01-30T11:21:21;17.17;;;13.88;;
39740;SDS011;25426;53.478;10.190;2024-01-30T11:23:55;18.40;;;12.57;;
39740;SDS011;25426;53.478;10.190;2024-01-30T11:26:27;16.52;;;13.98;;
39740;SDS011;25426;53.478;10.190;2024-01-30T11:29:03;14.35;;;11.90;;
39740;SDS011;25426;53.478;10.190;2024-01-30T11:31:34;14.73;;;13.25;;
39740;SDS011;25426;53.478;10.190;2024-01-30T11:34:05;13.93;;;12.50;;
39740;SDS011;25426;53.478;10.190;2024-01-30T11:36:36;14.60;;;13.10;;
39740;SDS011;25426;53.478;10.190;2024-01-30T11:39:08;19.40;;;12.38;;
39740;SDS011;25426;53.478;10.190;2024-01-30T11:41:39;18.65;;;12.98;;
39740;SDS011;25426;53.478;10.190;2024-01-30T11:44:10;15.20;;;13.00;;
39740;SDS011;25426;53.478;10.190;2024-01-30T11:46:41;14.35;;;12.80;;
39740;SDS011;25426;53.478;10.190;2024-01-30T11:49:12;13.07;;;11.75;;
39740;SDS011;25426;53.478;10.190;2024-01-30T11:51:45;15.85;;;12.95;;
39740;SDS011;25426;53.478;10.190;2024-01-30T11:54:16;13.98;;;12.38;;
39740;SDS011;25426;53.478;10.190;2024-01-30T11:56:47;14.70;;;13.18;;
39740;SDS011;25426;53.478;10.190;2024-01-30T11:59:18;13.15;;;11.85;;
39740;SDS011;25426;53.478;10.190;2024-01-30T12:01:49;14.45;;;12.32;;
39740;SDS011;25426;53.478;10.190;2024-01-30T12:04:22;14.20;;;11.75;;
39740;SDS011;25426;53.478;10.190;2024-01-30T12:06:53;13.40;;;11.85;;
39740;SDS011;25426;53.478;10.190;2024-01-30T12:09:24;14.73;;;13.07;;
39740;SDS011;25426;53.478;10.190;2024-01-30T12:11:55;14.60;;;12.48;;
39740;SDS011;25426;53.478;10.190;2024-01-30T12:14:26;15.75;;;11.85;;
39740;SDS011;25426;53.478;10.190;2024-01-30T12:16:57;15.57;;;12.25;;
39740;SDS011;25426;53.478;10.190;2024-01-30T12:19:28;12.75;;;11.52;;
39740;SDS011;25426;53.478;10.190;2024-01-30T12:21:59;13.75;;;12.35;;
39740;SDS011;25426;53.478;10.190;2024-01-30T12:24:30;14.13;;;12.63;;
39740;SDS011;25426;53.478;10.190;2024-01-30T12:27:01;15.20;;;12.63;;
39740;SDS011;25426;53.478;10.190;2024-01-30T12:29:32;13.93;;;12.45;;
39740;SDS011;25426;53.478;10.190;2024-01-30T12:32:03;17.13;;;15.02;;
39740;SDS011;25426;53.478;10.190;2024-01-30T12:34:39;13.25;;;11.80;;
39740;SDS011;25426;53.478;10.190;2024-01-30T12:37:12;16.23;;;13.98;;
39740;SDS011;25426;53.478;10.190;2024-01-30T12:39:43;16.40;;;13.02;;
39740;SDS011;25426;53.478;10.190;2024-01-30T12:42:16;15.05;;;13.35;;
39740;SDS011;25426;53.478;10.190;2024-01-30T12:44:48;14.32;;;12.68;;
39740;SDS011;25426;53.478;10.190;2024-01-30T12:47:22;15.25;;;10.88;;
39740;SDS011;25426;53.478;10.190;2024-01-30T12:49:53;15.43;;;13.80;;
39740;SDS011;25426;53.478;10.190;2024-01-30T12:52:24;14.07;;;11.48;;
39740;SDS011;25426;53.478;10.190;2024-01-30T12:54:55;12.35;;;10.93;;
39740;SDS011;25426;53.478;10.190;2024-01-30T12:57:26;12.23;;;10.68;;
39740;SDS011;25426;53.478;10.190;2024-01-30T12:59:57;13.35;;;11.85;;
39740;SDS011;25426;53.478;10.190;2024-01-30T13:02:28;13.30;;;10.77;;
39740;SDS011;25426;53.478;10.190;2024-01-30T13:05:04;16.10;;;11.02;;
39740;SDS011;25426;53.478;10.190;2024-01-30T13:07:36;12.02;;;10.48;;
39740;SDS011;25426;53.478;10.190;2024-01-30T13:10:07;13.77;;;10.57;;
39740;SDS011;25426;53.478;10.190;2024-01-30T13:12:38;15.98;;;11.18;;
39740;SDS011;25426;53.478;10.190;2024-01-30T13:15:09;13.73;;;10.38;;
39740;SDS011;25426;53.478;10.190;2024-01-30T13:17:41;13.38;;;10.10;;
39740;SDS011;25426;53.478;10.190;2024-01-30T13:20:14;12.45;;;9.65;;
39740;SDS011;25426;53.478;10.190;2024-01-30T13:22:50;10.77;;;8.85;;
39740;SDS011;25426;53.478;10.190;2024-01-30T13:25:21;11.75;;;9.13;;
39740;SDS011;25426;53.478;10.190;2024-01-30T13:27:51;10.68;;;9.20;;
39740;SDS011;25426;53.478;10.190;2024-01-30T13:30:22;10.85;;;9.38;;
39740;SDS011;25426;53.478;10.190;2024-01-30T13:32:54;11.15;;;9.55;;
39740;SDS011;25426;53.478;10.190;2024-01-30T13:35:25;11.90;;;9.77;;
39740;SDS011;25426;53.478;10.190;2024-01-30T13:37:56;9.85;;;8.85;;
39740;SDS011;25426;53.478;10.190;2024-01-30T13:40:27;12.82;;;9.82;;
39740;SDS011;25426;53.478;10.190;2024-01-30T13:42:58;14.90;;;9.13;;
39740;SDS011;25426;53.478;10.190;2024-01-30T13:45:28;11.00;;;9.65;;
39740;SDS011;25426;53.478;10.190;2024-01-30T13:47:59;12.18;;;9.63;;
39740;SDS011;25426;53.478;10.190;2024-01-30T13:50:31;12.75;;;10.10;;
39740;SDS011;25426;53.478;10.190;2024-01-30T13:53:03;14.30;;;9.40;;
39740;SDS011;25426;53.478;10.190;2024-01-30T14:01:08;11.80;;;9.18;;
39740;SDS011;25426;53.478;10.190;2024-01-30T14:26:02;11.25;;;9.73;;
39740;SDS011;25426;53.478;10.190;2024-01-30T14:49:03;21.45;;;16.00;;
39740;SDS011;25426;53.478;10.190;2024-01-30T14:54:01;31.40;;;20.88;;
39740;SDS011;25426;53.478;10.190;2024-01-30T14:59:53;19.35;;;15.48;;
39740;SDS011;25426;53.478;10.190;2024-01-30T15:02:24;24.00;;;17.15;;
39740;SDS011;25426;53.478;10.190;2024-01-30T15:04:55;22.85;;;15.80;;
39740;SDS011;25426;53.478;10.190;2024-01-30T15:07:26;21.45;;;15.73;;
39740;SDS011;25426;53.478;10.190;2024-01-30T15:09:57;27.90;;;18.98;;
39740;SDS011;25426;53.478;10.190;2024-01-30T15:12:28;20.98;;;16.67;;
39740;SDS011;25426;53.478;10.190;2024-01-30T15:14:59;17.77;;;13.45;;
39740;SDS011;25426;53.478;10.190;2024-01-30T15:17:30;19.85;;;14.40;;
39740;SDS011;25426;53.478;10.190;2024-01-30T15:20:01;19.60;;;14.98;;
39740;SDS011;25426;53.478;10.190;2024-01-30T15:22:34;36.08;;;20.48;;
39740;SDS011;25426;53.478;10.190;2024-01-30T15:25:05;26.05;;;15.77;;
39740;SDS011;25426;53.478;10.190;2024-01-30T15:27:36;32.47;;;17.73;;
39740;SDS011;25426;53.478;10.190;2024-01-30T15:30:07;28.58;;;16.08;;
39740;SDS011;25426;53.478;10.190;2024-01-30T15:32:38;34.28;;;21.20;;
39740;SDS011;25426;53.478;10.190;2024-01-30T15:35:09;26.27;;;16.48;;
39740;SDS011;25426;53.478;10.190;2024-01-30T15:37:40;25.80;;;15.38;;
39740;SDS011;25426;53.478;10.190;2024-01-30T15:40:11;26.13;;;17.00;;
39740;SDS011;25426;53.478;10.190;2024-01-30T15:42:42;38.58;;;21.63;;
39740;SDS011;25426;53.478;10.190;2024-01-30T15:45:13;27.70;;;16.35;;
39740;SDS011;25426;53.478;10.190;2024-01-30T15:47:44;21.25;;;14.52;;
39740;SDS011;25426;53.478;10.190;2024-01-30T15:50:15;25.85;;;16.67;;
39740;SDS011;25426;53.478;10.190;2024-01-30T15:52:46;16.67;;;12.07;;
39740;SDS011;25426;53.478;10.190;2024-01-30T15:55:17;29.95;;;17.25;;
39740;SDS011;25426;53.478;10.190;2024-01-30T15:57:50;35.05;;;19.27;;
39740;SDS011;25426;53.478;10.190;2024-01-30T16:00:21;26.02;;;16.25;;
39740;SDS011;25426;53.478;10.190;2024-01-30T16:02:52;30.83;;;19.75;;
39740;SDS011;25426;53.478;10.190;2024-01-30T16:05:23;19.95;;;14.35;;
39740;SDS011;25426;53.478;10.190;2024-01-30T16:07:54;15.95;;;12.90;;
39740;SDS011;25426;53.478;10.190;2024-01-30T16:10:25;14.63;;;10.80;;
39740;SDS011;25426;53.478;10.190;2024-01-30T16:12:56;15.15;;;11.18;;
39740;SDS011;25426;53.478;10.190;2024-01-30T16:15:27;15.95;;;11.38;;
39740;SDS011;25426;53.478;10.190;2024-01-30T16:17:58;18.15;;;11.65;;
39740;SDS011;25426;53.478;10.190;2024-01-30T16:20:29;13.57;;;10.60;;
39740;SDS011;25426;53.478;10.190;2024-01-30T16:23:00;13.93;;;11.32;;
39740;SDS011;25426;53.478;10.190;2024-01-30T16:25:31;16.23;;;10.80;;
39740;SDS011;25426;53.478;10.190;2024-01-30T16:28:02;14.02;;;11.30;;
39740;SDS011;25426;53.478;10.190;2024-01-30T16:30:33;15.93;;;11.45;;
39740;SDS011;25426;53.478;10.190;2024-01-30T16:33:04;18.30;;;12.13;;
39740;SDS011;25426;53.478;10.190;2024-01-30T16:35:36;14.65;;;11.27;;
39740;SDS011;25426;53.478;10.190;2024-01-30T16:38:07;13.60;;;11.25;;
39740;SDS011;25426;53.478;10.190;2024-01-30T16:40:38;13.52;;;10.15;;
39740;SDS011;25426;53.478;10.190;2024-01-30T16:43:09;13.18;;;11.30;;
39740;SDS011;25426;53.478;10.190;2024-01-30T16:45:42;14.43;;;11.20;;
39740;SDS011;25426;53.478;10.190;2024-01-30T16:48:13;13.90;;;11.15;;
39740;SDS011;25426;53.478;10.190;2024-01-30T16:50:46;14.30;;;11.13;;
39740;SDS011;25426;53.478;10.190;2024-01-30T16:53:18;14.10;;;11.35;;
39740;SDS011;25426;53.478;10.190;2024-01-30T16:55:49;17.98;;;12.48;;
39740;SDS011;25426;53.478;10.190;2024-01-30T16:58:20;14.98;;;10.90;;
39740;SDS011;25426;53.478;10.190;2024-01-30T17:00:51;14.43;;;11.23;;
39740;SDS011;25426;53.478;10.190;2024-01-30T17:03:22;18.20;;;12.55;;
39740;SDS011;25426;53.478;10.190;2024-01-30T17:05:53;16.08;;;11.93;;
39740;SDS011;25426;53.478;10.190;2024-01-30T17:08:28;15.68;;;11.55;;
39740;SDS011;25426;53.478;10.190;2024-01-30T17:10:59;16.50;;;11.80;;
39740;SDS011;25426;53.478;10.190;2024-01-30T17:13:30;15.20;;;11.68;;
39740;SDS011;25426;53.478;10.190;2024-01-30T17:16:01;17.67;;;11.15;;
39740;SDS011;25426;53.478;10.190;2024-01-30T17:18:32;15.98;;;11.50;;
39740;SDS011;25426;53.478;10.190;2024-01-30T17:21:03;15.98;;;11.27;;
39740;SDS011;25426;53.478;10.190;2024-01-30T17:23:34;16.08;;;12.15;;
39740;SDS011;25426;53.478;10.190;2024-01-30T17:26:07;14.57;;;12.25;;
39740;SDS011;25426;53.478;10.190;2024-01-30T17:28:40;16.85;;;12.05;;
39740;SDS011;25426;53.478;10.190;2024-01-30T17:31:12;17.02;;;11.85;;
39740;SDS011;25426;53.478;10.190;2024-01-30T17:33:43;15.05;;;11.63;;
39740;SDS011;25426;53.478;10.190;2024-01-30T17:36:14;14.98;;;12.27;;
39740;SDS011;25426;53.478;10.190;2024-01-30T17:38:45;17.50;;;12.70;;
39740;SDS011;25426;53.478;10.190;2024-01-30T17:41:17;16.88;;;13.02;;
39740;SDS011;25426;53.478;10.190;2024-01-30T17:43:48;16.70;;;12.13;;
39740;SDS011;25426;53.478;10.190;2024-01-30T17:46:19;15.82;;;11.50;;
39740;SDS011;25426;53.478;10.190;2024-01-30T17:48:50;25.30;;;19.05;;
39740;SDS011;25426;53.478;10.190;2024-01-30T17:51:21;22.42;;;14.15;;
39740;SDS011;25426;53.478;10.190;2024-01-30T17:53:52;15.75;;;12.23;;
